sensor_id;sensor_type;location;lat;lon;timestamp;temperature;humidity
16846;DHT22;8539;53.188;8.696;2022-08-07T00:01:46;11.50;99.90
16846;DHT22;8539;53.188;8.696;2022-08-07T00:04:12;11.50;99.90
16846;DHT22;8539;53.188;8.696;2022-08-07T00:06:39;11.40;99.90
16846;DHT22;8539;53.188;8.696;2022-08-07T00:09:06;11.40;99.90
16846;DHT22;8539;53.188;8.696;2022-08-07T00:11:32;11.40;99.90
16846;DHT22;8539;53.188;8.696;2022-08-07T00:14:00;11.40;99.90
16846;DHT22;8539;53.188;8.696;2022-08-07T00:16:27;11.40;99.90
16846;DHT22;8539;53.188;8.696;2022-08-07T00:18:53;11.30;99.90
16846;DHT22;8539;53.188;8.696;2022-08-07T00:21:19;11.30;99.90
16846;DHT22;8539;53.188;8.696;2022-08-07T00:23:47;11.30;99.90
16846;DHT22;8539;53.188;8.696;2022-08-07T00:26:13;11.30;99.90
16846;DHT22;8539;53.188;8.696;2022-08-07T00:28:39;11.30;99.90
16846;DHT22;8539;53.188;8.696;2022-08-07T00:31:10;11.30;99.90
16846;DHT22;8539;53.188;8.696;2022-08-07T00:33:38;11.20;99.90
16846;DHT22;8539;53.188;8.696;2022-08-07T00:36:05;11.20;99.90
16846;DHT22;8539;53.188;8.696;2022-08-07T00:38:32;11.20;99.90
16846;DHT22;8539;53.188;8.696;2022-08-07T00:41:02;11.20;99.90
16846;DHT22;8539;53.188;8.696;2022-08-07T00:43:29;11.10;99.90
16846;DHT22;8539;53.188;8.696;2022-08-07T00:45:57;11.10;99.90
16846;DHT22;8539;53.188;8.696;2022-08-07T00:48:24;11.10;99.90
16846;DHT22;8539;53.188;8.696;2022-08-07T00:50:54;11.10;99.90
16846;DHT22;8539;53.188;8.696;2022-08-07T00:53:21;11.00;99.90
16846;DHT22;8539;53.188;8.696;2022-08-07T00:55:48;11.00;99.90
16846;DHT22;8539;53.188;8.696;2022-08-07T00:58:14;11.00;99.90
16846;DHT22;8539;53.188;8.696;2022-08-07T01:00:41;11.00;99.90
16846;DHT22;8539;53.188;8.696;2022-08-07T01:03:08;11.00;99.90
16846;DHT22;8539;53.188;8.696;2022-08-07T01:05:36;10.90;99.90
16846;DHT22;8539;53.188;8.696;2022-08-07T01:08:03;10.90;99.90
16846;DHT22;8539;53.188;8.696;2022-08-07T01:10:30;10.90;99.90
16846;DHT22;8539;53.188;8.696;2022-08-07T01:12:56;10.90;99.90
16846;DHT22;8539;53.188;8.696;2022-08-07T01:15:23;10.80;99.90
16846;DHT22;8539;53.188;8.696;2022-08-07T01:17:52;10.80;99.90
16846;DHT22;8539;53.188;8.696;2022-08-07T01:20:32;10.80;99.90
16846;DHT22;8539;53.188;8.696;2022-08-07T01:22:59;10.80;99.90
16846;DHT22;8539;53.188;8.696;2022-08-07T01:25:25;10.80;99.90
16846;DHT22;8539;53.188;8.696;2022-08-07T01:27:53;10.80;99.90
16846;DHT22;8539;53.188;8.696;2022-08-07T01:30:20;10.70;99.90
16846;DHT22;8539;53.188;8.696;2022-08-07T01:32:46;10.90;99.90
16846;DHT22;8539;53.188;8.696;2022-08-07T01:35:13;10.80;99.90
16846;DHT22;8539;53.188;8.696;2022-08-07T01:37:39;10.70;99.90
16846;DHT22;8539;53.188;8.696;2022-08-07T01:40:06;10.70;99.90
16846;DHT22;8539;53.188;8.696;2022-08-07T01:42:33;10.70;99.90
16846;DHT22;8539;53.188;8.696;2022-08-07T01:45:01;10.70;99.90
16846;DHT22;8539;53.188;8.696;2022-08-07T01:47:27;10.70;99.90
16846;DHT22;8539;53.188;8.696;2022-08-07T01:49:54;10.70;99.90
16846;DHT22;8539;53.188;8.696;2022-08-07T01:52:22;10.70;99.90
16846;DHT22;8539;53.188;8.696;2022-08-07T01:54:52;10.70;99.90
16846;DHT22;8539;53.188;8.696;2022-08-07T01:57:27;10.70;99.90
16846;DHT22;8539;53.188;8.696;2022-08-07T02:00:03;10.70;99.90
16846;DHT22;8539;53.188;8.696;2022-08-07T02:02:37;10.60;99.90
16846;DHT22;8539;53.188;8.696;2022-08-07T02:05:11;10.60;99.90
16846;DHT22;8539;53.188;8.696;2022-08-07T02:07:48;10.60;99.90
16846;DHT22;8539;53.188;8.696;2022-08-07T02:10:18;10.60;99.90
16846;DHT22;8539;53.188;8.696;2022-08-07T02:12:48;10.60;99.90
16846;DHT22;8539;53.188;8.696;2022-08-07T02:15:15;10.60;99.90
16846;DHT22;8539;53.188;8.696;2022-08-07T02:17:44;10.50;99.90
16846;DHT22;8539;53.188;8.696;2022-08-07T02:20:13;10.50;99.90
16846;DHT22;8539;53.188;8.696;2022-08-07T02:22:41;10.50;99.90
16846;DHT22;8539;53.188;8.696;2022-08-07T02:25:08;10.50;99.90
16846;DHT22;8539;53.188;8.696;2022-08-07T02:27:35;10.50;99.90
16846;DHT22;8539;53.188;8.696;2022-08-07T02:30:04;10.50;99.90
16846;DHT22;8539;53.188;8.696;2022-08-07T02:32:30;10.40;99.90
16846;DHT22;8539;53.188;8.696;2022-08-07T02:34:58;10.40;99.90
16846;DHT22;8539;53.188;8.696;2022-08-07T02:37:25;10.40;99.90
16846;DHT22;8539;53.188;8.696;2022-08-07T02:39:53;10.40;99.90
16846;DHT22;8539;53.188;8.696;2022-08-07T02:42:21;10.40;99.90
16846;DHT22;8539;53.188;8.696;2022-08-07T02:44:49;10.30;99.90
16846;DHT22;8539;53.188;8.696;2022-08-07T02:47:18;10.30;99.90
16846;DHT22;8539;53.188;8.696;2022-08-07T02:49:45;10.30;99.90
16846;DHT22;8539;53.188;8.696;2022-08-07T02:52:24;10.30;99.90
16846;DHT22;8539;53.188;8.696;2022-08-07T02:54:53;10.30;99.90
16846;DHT22;8539;53.188;8.696;2022-08-07T02:57:20;10.20;99.90
16846;DHT22;8539;53.188;8.696;2022-08-07T02:59:49;10.20;99.90
16846;DHT22;8539;53.188;8.696;2022-08-07T03:02:17;10.20;99.90
16846;DHT22;8539;53.188;8.696;2022-08-07T03:04:45;10.20;99.90
16846;DHT22;8539;53.188;8.696;2022-08-07T03:07:12;10.20;99.90
16846;DHT22;8539;53.188;8.696;2022-08-07T03:09:40;10.20;99.90
16846;DHT22;8539;53.188;8.696;2022-08-07T03:12:08;10.10;99.90
16846;DHT22;8539;53.188;8.696;2022-08-07T03:14:35;10.10;99.90
16846;DHT22;8539;53.188;8.696;2022-08-07T03:17:02;10.10;99.90
16846;DHT22;8539;53.188;8.696;2022-08-07T03:19:29;10.10;99.90
16846;DHT22;8539;53.188;8.696;2022-08-07T03:21:56;10.10;99.90
16846;DHT22;8539;53.188;8.696;2022-08-07T03:24:23;10.10;99.90
16846;DHT22;8539;53.188;8.696;2022-08-07T03:26:50;10.10;99.90
16846;DHT22;8539;53.188;8.696;2022-08-07T03:29:17;10.00;99.90
16846;DHT22;8539;53.188;8.696;2022-08-07T03:31:46;10.00;99.90
16846;DHT22;8539;53.188;8.696;2022-08-07T03:34:16;10.00;99.90
16846;DHT22;8539;53.188;8.696;2022-08-07T03:36:43;10.00;99.90
16846;DHT22;8539;53.188;8.696;2022-08-07T03:39:12;9.90;99.90
16846;DHT22;8539;53.188;8.696;2022-08-07T03:41:39;9.90;99.90
16846;DHT22;8539;53.188;8.696;2022-08-07T03:44:06;9.90;99.90
16846;DHT22;8539;53.188;8.696;2022-08-07T03:46:33;9.90;99.90
16846;DHT22;8539;53.188;8.696;2022-08-07T03:49:00;9.80;99.90
16846;DHT22;8539;53.188;8.696;2022-08-07T03:51:27;9.80;99.90
16846;DHT22;8539;53.188;8.696;2022-08-07T03:53:55;9.80;99.90
16846;DHT22;8539;53.188;8.696;2022-08-07T03:56:23;9.80;99.90
16846;DHT22;8539;53.188;8.696;2022-08-07T03:58:50;9.80;99.90
16846;DHT22;8539;53.188;8.696;2022-08-07T04:01:17;9.80;99.90
16846;DHT22;8539;53.188;8.696;2022-08-07T04:03:44;9.80;99.90
16846;DHT22;8539;53.188;8.696;2022-08-07T04:06:11;9.90;99.90
16846;DHT22;8539;53.188;8.696;2022-08-07T04:08:39;9.70;99.90
16846;DHT22;8539;53.188;8.696;2022-08-07T04:11:07;9.80;99.90
16846;DHT22;8539;53.188;8.696;2022-08-07T04:13:35;9.80;99.90
16846;DHT22;8539;53.188;8.696;2022-08-07T04:16:02;9.80;99.90
16846;DHT22;8539;53.188;8.696;2022-08-07T04:18:29;9.80;99.90
16846;DHT22;8539;53.188;8.696;2022-08-07T04:20:55;9.70;99.90
16846;DHT22;8539;53.188;8.696;2022-08-07T04:23:23;9.70;99.90
16846;DHT22;8539;53.188;8.696;2022-08-07T04:25:50;9.70;99.90
16846;DHT22;8539;53.188;8.696;2022-08-07T04:28:17;9.70;99.90
16846;DHT22;8539;53.188;8.696;2022-08-07T04:30:48;9.70;99.90
16846;DHT22;8539;53.188;8.696;2022-08-07T04:33:15;9.50;99.90
16846;DHT22;8539;53.188;8.696;2022-08-07T04:35:46;9.70;99.90
16846;DHT22;8539;53.188;8.696;2022-08-07T04:38:12;9.70;99.90
16846;DHT22;8539;53.188;8.696;2022-08-07T04:40:41;9.80;99.90
16846;DHT22;8539;53.188;8.696;2022-08-07T04:43:08;9.80;99.90
16846;DHT22;8539;53.188;8.696;2022-08-07T04:51:36;9.90;99.90
16846;DHT22;8539;53.188;8.696;2022-08-07T04:54:58;10.00;99.90
16846;DHT22;8539;53.188;8.696;2022-08-07T05:00:07;10.10;99.90
16846;DHT22;8539;53.188;8.696;2022-08-07T05:05:36;10.30;99.90
16846;DHT22;8539;53.188;8.696;2022-08-07T05:08:26;10.40;99.90
16846;DHT22;8539;53.188;8.696;2022-08-07T05:11:32;10.40;99.90
16846;DHT22;8539;53.188;8.696;2022-08-07T05:14:07;10.50;99.90
16846;DHT22;8539;53.188;8.696;2022-08-07T05:16:35;10.60;99.90
16846;DHT22;8539;53.188;8.696;2022-08-07T05:19:19;10.70;99.90
16846;DHT22;8539;53.188;8.696;2022-08-07T05:21:52;10.80;99.90
16846;DHT22;8539;53.188;8.696;2022-08-07T05:24:20;10.90;99.90
16846;DHT22;8539;53.188;8.696;2022-08-07T05:26:48;11.00;99.90
16846;DHT22;8539;53.188;8.696;2022-08-07T05:29:16;11.00;99.90
16846;DHT22;8539;53.188;8.696;2022-08-07T05:31:43;11.10;99.90
16846;DHT22;8539;53.188;8.696;2022-08-07T05:34:12;11.20;99.90
16846;DHT22;8539;53.188;8.696;2022-08-07T05:36:41;11.30;99.90
16846;DHT22;8539;53.188;8.696;2022-08-07T05:39:08;11.40;99.90
16846;DHT22;8539;53.188;8.696;2022-08-07T05:41:35;11.50;99.90
16846;DHT22;8539;53.188;8.696;2022-08-07T05:44:02;11.70;99.90
16846;DHT22;8539;53.188;8.696;2022-08-07T05:46:29;12.00;99.90
16846;DHT22;8539;53.188;8.696;2022-08-07T05:48:57;12.20;99.90
16846;DHT22;8539;53.188;8.696;2022-08-07T05:51:25;12.60;99.90
16846;DHT22;8539;53.188;8.696;2022-08-07T05:53:51;13.00;99.90
16846;DHT22;8539;53.188;8.696;2022-08-07T05:56:18;13.60;99.90
16846;DHT22;8539;53.188;8.696;2022-08-07T05:58:46;13.90;99.90
16846;DHT22;8539;53.188;8.696;2022-08-07T06:01:13;14.20;99.90
16846;DHT22;8539;53.188;8.696;2022-08-07T06:03:44;15.00;99.90
16846;DHT22;8539;53.188;8.696;2022-08-07T06:06:12;15.90;99.90
16846;DHT22;8539;53.188;8.696;2022-08-07T06:08:39;16.40;99.90
16846;DHT22;8539;53.188;8.696;2022-08-07T06:11:08;16.50;99.90
16846;DHT22;8539;53.188;8.696;2022-08-07T06:13:35;16.70;99.90
16846;DHT22;8539;53.188;8.696;2022-08-07T06:16:05;16.60;99.90
16846;DHT22;8539;53.188;8.696;2022-08-07T06:18:32;16.70;99.90
16846;DHT22;8539;53.188;8.696;2022-08-07T06:21:00;16.70;99.90
16846;DHT22;8539;53.188;8.696;2022-08-07T06:23:27;17.00;99.90
16846;DHT22;8539;53.188;8.696;2022-08-07T06:25:54;17.90;99.90
16846;DHT22;8539;53.188;8.696;2022-08-07T06:28:21;18.20;99.90
16846;DHT22;8539;53.188;8.696;2022-08-07T06:30:47;17.90;99.90
16846;DHT22;8539;53.188;8.696;2022-08-07T06:33:13;17.70;99.90
16846;DHT22;8539;53.188;8.696;2022-08-07T06:35:40;17.50;99.90
16846;DHT22;8539;53.188;8.696;2022-08-07T06:38:06;17.40;99.90
16846;DHT22;8539;53.188;8.696;2022-08-07T06:40:44;17.40;99.90
16846;DHT22;8539;53.188;8.696;2022-08-07T06:43:11;17.40;99.90
16846;DHT22;8539;53.188;8.696;2022-08-07T06:45:38;17.50;99.90
16846;DHT22;8539;53.188;8.696;2022-08-07T06:48:05;17.80;99.90
16846;DHT22;8539;53.188;8.696;2022-08-07T06:50:33;18.20;99.90
16846;DHT22;8539;53.188;8.696;2022-08-07T06:53:02;18.60;99.90
16846;DHT22;8539;53.188;8.696;2022-08-07T06:55:30;18.70;99.90
16846;DHT22;8539;53.188;8.696;2022-08-07T06:58:01;19.00;99.90
16846;DHT22;8539;53.188;8.696;2022-08-07T07:00:32;19.20;99.90
16846;DHT22;8539;53.188;8.696;2022-08-07T07:03:00;19.10;99.90
16846;DHT22;8539;53.188;8.696;2022-08-07T07:05:27;18.80;99.90
16846;DHT22;8539;53.188;8.696;2022-08-07T07:07:53;18.70;99.90
16846;DHT22;8539;53.188;8.696;2022-08-07T07:10:40;18.60;99.90
16846;DHT22;8539;53.188;8.696;2022-08-07T07:13:22;18.70;99.90
16846;DHT22;8539;53.188;8.696;2022-08-07T07:15:59;18.70;99.90
16846;DHT22;8539;53.188;8.696;2022-08-07T07:18:33;18.60;99.90
16846;DHT22;8539;53.188;8.696;2022-08-07T07:21:06;18.60;99.90
16846;DHT22;8539;53.188;8.696;2022-08-07T07:23:33;18.60;99.90
16846;DHT22;8539;53.188;8.696;2022-08-07T07:26:02;18.70;99.90
16846;DHT22;8539;53.188;8.696;2022-08-07T07:28:41;18.80;99.90
16846;DHT22;8539;53.188;8.696;2022-08-07T07:33:49;18.80;99.90
16846;DHT22;8539;53.188;8.696;2022-08-07T07:36:17;18.80;99.90
16846;DHT22;8539;53.188;8.696;2022-08-07T07:38:44;18.90;99.90
16846;DHT22;8539;53.188;8.696;2022-08-07T07:41:11;19.00;99.90
16846;DHT22;8539;53.188;8.696;2022-08-07T07:43:41;19.10;99.90
16846;DHT22;8539;53.188;8.696;2022-08-07T07:46:08;19.10;99.90
16846;DHT22;8539;53.188;8.696;2022-08-07T07:48:36;19.10;99.90
16846;DHT22;8539;53.188;8.696;2022-08-07T07:51:05;19.10;99.90
16846;DHT22;8539;53.188;8.696;2022-08-07T07:53:34;19.20;99.90
16846;DHT22;8539;53.188;8.696;2022-08-07T07:56:04;19.20;99.90
16846;DHT22;8539;53.188;8.696;2022-08-07T07:58:35;19.20;99.90
16846;DHT22;8539;53.188;8.696;2022-08-07T08:01:03;19.20;99.90
16846;DHT22;8539;53.188;8.696;2022-08-07T08:03:33;19.30;99.90
16846;DHT22;8539;53.188;8.696;2022-08-07T08:06:01;19.30;99.90
16846;DHT22;8539;53.188;8.696;2022-08-07T08:08:29;19.40;99.90
16846;DHT22;8539;53.188;8.696;2022-08-07T08:10:59;19.40;99.90
16846;DHT22;8539;53.188;8.696;2022-08-07T08:13:26;19.50;99.80
16846;DHT22;8539;53.188;8.696;2022-08-07T08:15:54;19.60;99.80
16846;DHT22;8539;53.188;8.696;2022-08-07T08:18:23;19.70;99.70
16846;DHT22;8539;53.188;8.696;2022-08-07T08:20:51;19.80;99.70
16846;DHT22;8539;53.188;8.696;2022-08-07T08:23:18;19.90;99.60
16846;DHT22;8539;53.188;8.696;2022-08-07T08:26:04;20.00;99.40
16846;DHT22;8539;53.188;8.696;2022-08-07T08:28:50;20.10;99.10
16846;DHT22;8539;53.188;8.696;2022-08-07T08:31:28;20.20;98.80
16846;DHT22;8539;53.188;8.696;2022-08-07T08:33:56;20.20;98.40
16846;DHT22;8539;53.188;8.696;2022-08-07T08:36:30;20.30;97.90
16846;DHT22;8539;53.188;8.696;2022-08-07T08:38:59;20.40;97.60
16846;DHT22;8539;53.188;8.696;2022-08-07T08:41:41;20.40;97.40
16846;DHT22;8539;53.188;8.696;2022-08-07T08:44:16;20.60;97.10
16846;DHT22;8539;53.188;8.696;2022-08-07T08:47:13;20.60;96.80
16846;DHT22;8539;53.188;8.696;2022-08-07T08:55:29;21.00;96.00
16846;DHT22;8539;53.188;8.696;2022-08-07T08:58:09;21.10;95.60
16846;DHT22;8539;53.188;8.696;2022-08-07T09:00:42;21.20;95.40
16846;DHT22;8539;53.188;8.696;2022-08-07T09:03:21;21.30;95.00
16846;DHT22;8539;53.188;8.696;2022-08-07T09:06:17;21.40;94.60
16846;DHT22;8539;53.188;8.696;2022-08-07T09:12:10;21.70;94.00
16846;DHT22;8539;53.188;8.696;2022-08-07T09:21:05;22.10;93.80
16846;DHT22;8539;53.188;8.696;2022-08-07T09:23:57;22.40;93.60
16846;DHT22;8539;53.188;8.696;2022-08-07T09:26:42;22.70;93.40
16846;DHT22;8539;53.188;8.696;2022-08-07T09:34:57;22.90;92.00
16846;DHT22;8539;53.188;8.696;2022-08-07T09:40:45;23.20;91.80
16846;DHT22;8539;53.188;8.696;2022-08-07T09:43:27;23.30;91.60
16846;DHT22;8539;53.188;8.696;2022-08-07T09:46:00;23.40;91.20
16846;DHT22;8539;53.188;8.696;2022-08-07T09:48:40;23.50;90.20
16846;DHT22;8539;53.188;8.696;2022-08-07T09:53:57;23.60;89.60
16846;DHT22;8539;53.188;8.696;2022-08-07T10:07:58;24.00;87.00
16846;DHT22;8539;53.188;8.696;2022-08-07T10:10:47;23.90;86.40
16846;DHT22;8539;53.188;8.696;2022-08-07T10:19:54;24.00;85.00
16846;DHT22;8539;53.188;8.696;2022-08-07T10:25:15;24.10;84.80
16846;DHT22;8539;53.188;8.696;2022-08-07T10:27:56;24.20;84.80
16846;DHT22;8539;53.188;8.696;2022-08-07T10:30:42;24.00;84.80
16846;DHT22;8539;53.188;8.696;2022-08-07T10:34:24;23.80;84.70
16846;DHT22;8539;53.188;8.696;2022-08-07T10:42:10;24.00;84.60
16846;DHT22;8539;53.188;8.696;2022-08-07T10:47:46;24.20;83.80
16846;DHT22;8539;53.188;8.696;2022-08-07T10:50:22;24.10;83.70
16846;DHT22;8539;53.188;8.696;2022-08-07T11:04:13;23.30;81.00
16846;DHT22;8539;53.188;8.696;2022-08-07T11:07:03;23.10;80.90
16846;DHT22;8539;53.188;8.696;2022-08-07T11:09:44;23.10;81.50
16846;DHT22;8539;53.188;8.696;2022-08-07T11:12:16;23.30;81.20
16846;DHT22;8539;53.188;8.696;2022-08-07T11:15:13;23.40;81.30
16846;DHT22;8539;53.188;8.696;2022-08-07T11:17:51;23.50;81.30
16846;DHT22;8539;53.188;8.696;2022-08-07T11:20:23;23.80;81.40
16846;DHT22;8539;53.188;8.696;2022-08-07T11:23:16;24.00;81.40
16846;DHT22;8539;53.188;8.696;2022-08-07T11:25:54;24.30;80.20
16846;DHT22;8539;53.188;8.696;2022-08-07T11:28:27;24.50;79.00
16846;DHT22;8539;53.188;8.696;2022-08-07T11:31:18;24.60;78.10
16846;DHT22;8539;53.188;8.696;2022-08-07T11:45:25;24.00;75.80
16846;DHT22;8539;53.188;8.696;2022-08-07T11:53:15;23.90;74.80
16846;DHT22;8539;53.188;8.696;2022-08-07T12:02:11;24.10;74.90
16846;DHT22;8539;53.188;8.696;2022-08-07T12:07:39;24.30;74.70
16846;DHT22;8539;53.188;8.696;2022-08-07T12:10:30;24.30;74.60
16846;DHT22;8539;53.188;8.696;2022-08-07T12:13:16;24.50;74.60
16846;DHT22;8539;53.188;8.696;2022-08-07T12:15:49;24.60;74.20
16846;DHT22;8539;53.188;8.696;2022-08-07T12:27:08;24.70;72.40
16846;DHT22;8539;53.188;8.696;2022-08-07T12:29:53;24.50;72.30
16846;DHT22;8539;53.188;8.696;2022-08-07T12:32:39;24.50;71.90
16846;DHT22;8539;53.188;8.696;2022-08-07T12:35:10;24.50;71.90
16846;DHT22;8539;53.188;8.696;2022-08-07T12:37:39;24.50;72.30
16846;DHT22;8539;53.188;8.696;2022-08-07T12:40:07;24.50;72.50
16846;DHT22;8539;53.188;8.696;2022-08-07T12:42:33;24.70;72.70
16846;DHT22;8539;53.188;8.696;2022-08-07T12:45:08;24.70;72.20
16846;DHT22;8539;53.188;8.696;2022-08-07T12:48:10;24.70;71.90
16846;DHT22;8539;53.188;8.696;2022-08-07T12:50:52;24.60;71.60
16846;DHT22;8539;53.188;8.696;2022-08-07T12:56:33;24.60;70.90
16846;DHT22;8539;53.188;8.696;2022-08-07T12:59:04;24.40;70.70
16846;DHT22;8539;53.188;8.696;2022-08-07T13:01:49;24.50;70.90
16846;DHT22;8539;53.188;8.696;2022-08-07T13:18:25;25.30;71.10
16846;DHT22;8539;53.188;8.696;2022-08-07T13:21:33;25.40;70.60
16846;DHT22;8539;53.188;8.696;2022-08-07T13:24:56;25.30;70.30
16846;DHT22;8539;53.188;8.696;2022-08-07T13:27:09;25.30;70.10
16846;DHT22;8539;53.188;8.696;2022-08-07T13:30:08;25.10;69.90
16846;DHT22;8539;53.188;8.696;2022-08-07T13:35:55;25.10;69.40
16846;DHT22;8539;53.188;8.696;2022-08-07T13:38:48;25.10;69.40
16846;DHT22;8539;53.188;8.696;2022-08-07T13:43:53;25.20;68.80
16846;DHT22;8539;53.188;8.696;2022-08-07T13:46:21;25.20;68.70
16846;DHT22;8539;53.188;8.696;2022-08-07T13:48:54;25.10;68.60
16846;DHT22;8539;53.188;8.696;2022-08-07T13:51:24;25.00;69.00
16846;DHT22;8539;53.188;8.696;2022-08-07T13:53:55;25.00;69.20
16846;DHT22;8539;53.188;8.696;2022-08-07T13:56:24;25.00;69.60
16846;DHT22;8539;53.188;8.696;2022-08-07T13:58:52;25.10;69.90
16846;DHT22;8539;53.188;8.696;2022-08-07T14:01:29;25.20;70.20
16846;DHT22;8539;53.188;8.696;2022-08-07T14:03:57;25.30;70.10
16846;DHT22;8539;53.188;8.696;2022-08-07T14:06:31;25.30;69.70
16846;DHT22;8539;53.188;8.696;2022-08-07T14:09:02;25.30;69.90
16846;DHT22;8539;53.188;8.696;2022-08-07T14:11:30;25.20;69.90
16846;DHT22;8539;53.188;8.696;2022-08-07T14:14:05;25.20;70.10
16846;DHT22;8539;53.188;8.696;2022-08-07T14:16:37;25.10;70.10
16846;DHT22;8539;53.188;8.696;2022-08-07T14:19:15;25.00;70.50
16846;DHT22;8539;53.188;8.696;2022-08-07T14:21:43;24.90;71.00
16846;DHT22;8539;53.188;8.696;2022-08-07T14:26:53;24.80;70.70
16846;DHT22;8539;53.188;8.696;2022-08-07T14:29:26;24.70;70.80
16846;DHT22;8539;53.188;8.696;2022-08-07T14:31:59;24.60;70.60
16846;DHT22;8539;53.188;8.696;2022-08-07T14:34:28;24.50;70.40
16846;DHT22;8539;53.188;8.696;2022-08-07T14:36:59;24.40;70.20
16846;DHT22;8539;53.188;8.696;2022-08-07T14:39:27;24.30;70.40
16846;DHT22;8539;53.188;8.696;2022-08-07T14:41:54;24.20;70.70
16846;DHT22;8539;53.188;8.696;2022-08-07T14:44:22;24.20;70.60
16846;DHT22;8539;53.188;8.696;2022-08-07T14:46:54;24.30;70.70
16846;DHT22;8539;53.188;8.696;2022-08-07T14:49:30;24.40;70.60
16846;DHT22;8539;53.188;8.696;2022-08-07T14:51:59;24.50;69.60
16846;DHT22;8539;53.188;8.696;2022-08-07T14:54:32;24.40;69.30
16846;DHT22;8539;53.188;8.696;2022-08-07T14:57:00;24.30;68.80
16846;DHT22;8539;53.188;8.696;2022-08-07T14:59:28;24.40;68.40
16846;DHT22;8539;53.188;8.696;2022-08-07T15:02:10;24.40;68.40
16846;DHT22;8539;53.188;8.696;2022-08-07T15:04:46;24.50;68.10
16846;DHT22;8539;53.188;8.696;2022-08-07T15:07:19;24.30;68.30
16846;DHT22;8539;53.188;8.696;2022-08-07T15:09:48;24.20;68.80
16846;DHT22;8539;53.188;8.696;2022-08-07T15:12:20;24.10;69.20
16846;DHT22;8539;53.188;8.696;2022-08-07T15:14:54;24.00;69.70
16846;DHT22;8539;53.188;8.696;2022-08-07T15:17:28;23.90;70.80
16846;DHT22;8539;53.188;8.696;2022-08-07T15:20:00;24.00;71.70
16846;DHT22;8539;53.188;8.696;2022-08-07T15:22:31;24.20;72.10
16846;DHT22;8539;53.188;8.696;2022-08-07T15:25:02;24.40;72.30
16846;DHT22;8539;53.188;8.696;2022-08-07T15:27:30;24.60;72.70
16846;DHT22;8539;53.188;8.696;2022-08-07T15:30:01;24.80;72.50
16846;DHT22;8539;53.188;8.696;2022-08-07T15:32:32;25.00;72.10
16846;DHT22;8539;53.188;8.696;2022-08-07T15:35:00;25.10;71.60
16846;DHT22;8539;53.188;8.696;2022-08-07T15:37:31;25.20;71.10
16846;DHT22;8539;53.188;8.696;2022-08-07T15:40:03;25.30;70.60
16846;DHT22;8539;53.188;8.696;2022-08-07T15:45:30;25.20;70.00
16846;DHT22;8539;53.188;8.696;2022-08-07T15:50:39;25.10;69.90
16846;DHT22;8539;53.188;8.696;2022-08-07T15:53:13;25.10;70.10
16846;DHT22;8539;53.188;8.696;2022-08-07T15:55:41;25.10;70.30
16846;DHT22;8539;53.188;8.696;2022-08-07T15:58:11;25.20;70.50
16846;DHT22;8539;53.188;8.696;2022-08-07T16:00:38;25.20;70.70
16846;DHT22;8539;53.188;8.696;2022-08-07T16:03:17;25.30;71.00
16846;DHT22;8539;53.188;8.696;2022-08-07T16:05:47;25.30;71.10
16846;DHT22;8539;53.188;8.696;2022-08-07T16:08:16;25.40;71.10
16846;DHT22;8539;53.188;8.696;2022-08-07T16:10:47;25.30;71.00
16846;DHT22;8539;53.188;8.696;2022-08-07T16:16:13;25.20;70.60
16846;DHT22;8539;53.188;8.696;2022-08-07T16:19:23;25.10;70.50
16846;DHT22;8539;53.188;8.696;2022-08-07T16:25:34;25.10;70.40
16846;DHT22;8539;53.188;8.696;2022-08-07T16:28:20;25.00;70.70
16846;DHT22;8539;53.188;8.696;2022-08-07T16:30:55;25.00;70.70
16846;DHT22;8539;53.188;8.696;2022-08-07T16:33:26;25.00;70.90
16846;DHT22;8539;53.188;8.696;2022-08-07T16:36:23;24.80;71.00
16846;DHT22;8539;53.188;8.696;2022-08-07T16:55:31;24.00;72.90
16846;DHT22;8539;53.188;8.696;2022-08-07T17:03:41;23.90;74.00
16846;DHT22;8539;53.188;8.696;2022-08-07T17:14:51;23.70;74.50
16846;DHT22;8539;53.188;8.696;2022-08-07T17:17:36;23.60;74.70
16846;DHT22;8539;53.188;8.696;2022-08-07T17:20:12;23.50;74.60
16846;DHT22;8539;53.188;8.696;2022-08-07T17:23:04;23.40;74.80
16846;DHT22;8539;53.188;8.696;2022-08-07T17:26:07;23.30;74.90
16846;DHT22;8539;53.188;8.696;2022-08-07T17:34:36;23.00;75.80
16846;DHT22;8539;53.188;8.696;2022-08-07T17:37:20;22.90;76.20
16846;DHT22;8539;53.188;8.696;2022-08-07T17:40:03;22.90;76.60
16846;DHT22;8539;53.188;8.696;2022-08-07T17:42:53;22.80;77.00
16846;DHT22;8539;53.188;8.696;2022-08-07T17:45:54;22.70;77.30
16846;DHT22;8539;53.188;8.696;2022-08-07T17:48:31;22.60;77.60
16846;DHT22;8539;53.188;8.696;2022-08-07T17:51:17;22.60;77.80
16846;DHT22;8539;53.188;8.696;2022-08-07T17:54:02;22.50;77.90
16846;DHT22;8539;53.188;8.696;2022-08-07T17:56:36;22.40;78.10
16846;DHT22;8539;53.188;8.696;2022-08-07T17:59:24;22.30;78.50
16846;DHT22;8539;53.188;8.696;2022-08-07T18:02:00;22.20;78.80
16846;DHT22;8539;53.188;8.696;2022-08-07T18:07:23;22.00;79.30
16846;DHT22;8539;53.188;8.696;2022-08-07T18:09:59;22.00;79.60
16846;DHT22;8539;53.188;8.696;2022-08-07T18:18:30;21.70;80.20
16846;DHT22;8539;53.188;8.696;2022-08-07T18:21:23;21.60;80.60
16846;DHT22;8539;53.188;8.696;2022-08-07T18:29:23;21.20;82.00
16846;DHT22;8539;53.188;8.696;2022-08-07T18:34:53;21.00;83.00
16846;DHT22;8539;53.188;8.696;2022-08-07T18:37:34;20.90;83.40
16846;DHT22;8539;53.188;8.696;2022-08-07T18:42:56;20.70;84.10
16846;DHT22;8539;53.188;8.696;2022-08-07T18:45:58;20.60;84.50
16846;DHT22;8539;53.188;8.696;2022-08-07T18:51:28;20.40;85.20
16846;DHT22;8539;53.188;8.696;2022-08-07T18:56:43;20.10;86.50
16846;DHT22;8539;53.188;8.696;2022-08-07T19:01:51;19.80;87.50
16846;DHT22;8539;53.188;8.696;2022-08-07T19:04:32;19.70;88.00
16846;DHT22;8539;53.188;8.696;2022-08-07T19:10:08;19.50;89.10
16846;DHT22;8539;53.188;8.696;2022-08-07T19:18:43;19.20;90.10
16846;DHT22;8539;53.188;8.696;2022-08-07T19:21:21;19.00;90.50
16846;DHT22;8539;53.188;8.696;2022-08-07T19:23:54;18.90;90.70
16846;DHT22;8539;53.188;8.696;2022-08-07T19:26:27;18.80;90.90
16846;DHT22;8539;53.188;8.696;2022-08-07T19:29:00;18.80;91.10
16846;DHT22;8539;53.188;8.696;2022-08-07T19:31:32;18.70;91.20
16846;DHT22;8539;53.188;8.696;2022-08-07T19:34:01;18.70;91.40
16846;DHT22;8539;53.188;8.696;2022-08-07T19:36:33;18.60;91.40
16846;DHT22;8539;53.188;8.696;2022-08-07T19:39:03;18.50;91.40
16846;DHT22;8539;53.188;8.696;2022-08-07T19:41:33;18.50;91.40
16846;DHT22;8539;53.188;8.696;2022-08-07T19:44:05;18.40;91.40
16846;DHT22;8539;53.188;8.696;2022-08-07T19:46:38;18.30;91.50
16846;DHT22;8539;53.188;8.696;2022-08-07T19:49:06;18.20;91.50
16846;DHT22;8539;53.188;8.696;2022-08-07T19:51:34;18.10;91.60
16846;DHT22;8539;53.188;8.696;2022-08-07T19:54:03;18.10;91.80
16846;DHT22;8539;53.188;8.696;2022-08-07T19:56:37;18.00;91.90
16846;DHT22;8539;53.188;8.696;2022-08-07T19:59:30;17.90;92.10
16846;DHT22;8539;53.188;8.696;2022-08-07T20:02:00;17.80;92.30
16846;DHT22;8539;53.188;8.696;2022-08-07T20:04:33;17.70;92.70
16846;DHT22;8539;53.188;8.696;2022-08-07T20:07:03;17.60;93.00
16846;DHT22;8539;53.188;8.696;2022-08-07T20:09:30;17.40;93.40
16846;DHT22;8539;53.188;8.696;2022-08-07T20:11:58;17.30;93.90